createdAt,value
2022-09-14T00:01:25.192Z,78.20
2022-09-14T00:03:58.583Z,78.84
2022-09-14T00:06:25.834Z,77.30
2022-09-14T00:08:54.503Z,78.26
2022-09-14T00:11:22.783Z,78.98
2022-09-14T00:13:49.989Z,78.65
2022-09-14T00:16:22.950Z,79.57
2022-09-14T00:18:54.224Z,79.13
2022-09-14T00:21:21.209Z,77.84
2022-09-14T00:23:48.044Z,78.71
2022-09-14T00:26:17.719Z,78.73
2022-09-14T00:28:46.838Z,78.52
2022-09-14T00:31:13.978Z,78.33
2022-09-14T00:33:45.046Z,80.40
2022-09-14T00:36:14.999Z,80.77
2022-09-14T00:38:42.507Z,78.95
2022-09-14T00:41:17.034Z,78.40
2022-09-14T00:44:27.677Z,79.03
2022-09-14T00:46:56.871Z,79.78
2022-09-14T00:49:35.987Z,80.51
2022-09-14T00:52:11.092Z,78.61
2022-09-14T00:54:50.104Z,79.75
2022-09-14T00:57:18.001Z,78.57
2022-09-14T00:59:47.119Z,78.41
2022-09-14T01:02:17.049Z,78.94
2022-09-14T01:04:44.358Z,78.65
2022-09-14T01:07:29.745Z,79.49
2022-09-14T01:10:08.238Z,79.36
2022-09-14T01:12:51.437Z,80.03
2022-09-14T01:15:27.330Z,79.97
2022-09-14T01:18:21.141Z,78.01
2022-09-14T01:20:56.750Z,78.75
2022-09-14T01:23:44.701Z,77.63
2022-09-14T01:26:45.138Z,77.46
2022-09-14T01:29:34.915Z,78.21
2022-09-14T01:32:08.930Z,79.08
2022-09-14T01:34:51.943Z,78.77
2022-09-14T01:37:24.212Z,78.06
2022-09-14T01:39:56.596Z,77.71
2022-09-14T01:42:26.470Z,78.08
2022-09-14T01:44:56.936Z,78.15
2022-09-14T01:47:28.550Z,77.24
2022-09-14T01:50:06.181Z,78.27
2022-09-14T01:52:43.473Z,79.32
2022-09-14T01:55:16.699Z,80.23
2022-09-14T01:58:00.220Z,81.11
2022-09-14T02:00:28.128Z,81.33
2022-09-14T02:03:00.573Z,84.11
2022-09-14T02:05:39.081Z,83.36
2022-09-14T02:08:05.454Z,83.92
2022-09-14T02:10:32.521Z,83.98
2022-09-14T02:12:58.894Z,84.90
2022-09-14T02:15:28.168Z,84.61
2022-09-14T02:17:54.762Z,84.90
2022-09-14T02:20:34.037Z,85.93
2022-09-14T02:23:00.658Z,86.73
2022-09-14T02:25:27.093Z,85.36
2022-09-14T02:27:53.501Z,84.28
2022-09-14T02:30:20.741Z,84.88
2022-09-14T02:33:12.224Z,84.02
2022-09-14T02:35:45.155Z,84.28
2022-09-14T02:38:21.836Z,84.50
2022-09-14T02:41:37.107Z,83.89
2022-09-14T02:44:25.988Z,84.40
2022-09-14T02:47:14.074Z,83.67
2022-09-14T02:49:54.315Z,83.05
2022-09-14T02:52:47.127Z,83.04
2022-09-14T02:55:19.035Z,84.37
2022-09-14T02:58:07.754Z,83.42
2022-09-14T03:00:41.223Z,84.37
2022-09-14T03:03:10.378Z,83.07
2022-09-14T03:05:37.206Z,82.35
2022-09-14T03:08:04.260Z,82.84
2022-09-14T03:10:31.680Z,82.82
2022-09-14T03:12:58.810Z,84.16
2022-09-14T03:15:26.458Z,84.79
2022-09-14T03:17:53.427Z,85.79
2022-09-14T03:20:22.800Z,83.92
2022-09-14T03:22:49.319Z,83.58
2022-09-14T03:25:15.947Z,83.73
2022-09-14T03:27:42.318Z,84.20
2022-09-14T03:30:09.294Z,84.59
2022-09-14T03:32:35.659Z,84.65
2022-09-14T03:35:02.329Z,84.83
2022-09-14T03:37:28.660Z,85.09
2022-09-14T03:39:55.143Z,85.19
2022-09-14T03:42:21.555Z,84.60
2022-09-14T03:44:47.946Z,83.22
2022-09-14T03:47:14.244Z,82.77
2022-09-14T03:49:40.585Z,84.24
2022-09-14T03:52:07.717Z,83.76
2022-09-14T03:54:34.045Z,83.32
2022-09-14T03:57:00.511Z,82.83
2022-09-14T03:59:26.859Z,83.00
2022-09-14T04:01:53.334Z,84.30
2022-09-14T04:04:19.671Z,85.51
2022-09-14T04:06:46.077Z,85.09
2022-09-14T04:09:12.409Z,84.27
2022-09-14T04:11:38.724Z,86.02
2022-09-14T04:14:05.762Z,85.53
2022-09-14T04:16:32.227Z,85.97
2022-09-14T04:18:58.633Z,86.64
2022-09-14T04:21:26.205Z,86.80
2022-09-14T04:24:14.092Z,86.79
2022-09-14T04:26:40.696Z,88.51
2022-09-14T04:29:07.075Z,89.22
2022-09-14T04:31:33.645Z,89.23
2022-09-14T04:34:00.089Z,87.93
2022-09-14T04:36:30.148Z,87.99
2022-09-14T04:39:02.099Z,87.47
2022-09-14T04:41:29.646Z,86.94
2022-09-14T04:43:56.965Z,87.50
2022-09-14T04:46:26.864Z,87.38
2022-09-14T04:48:53.850Z,89.60
2022-09-14T04:51:23.439Z,88.70
2022-09-14T04:53:51.910Z,88.75
2022-09-14T04:56:20.166Z,89.65
2022-09-14T04:58:51.695Z,90.13
2022-09-14T05:01:21.159Z,89.95
2022-09-14T05:03:48.231Z,90.21
2022-09-14T05:06:24.174Z,90.32
2022-09-14T05:08:51.624Z,89.96
2022-09-14T05:11:21.241Z,89.02
2022-09-14T05:13:50.005Z,89.49
2022-09-14T05:16:26.264Z,90.11
2022-09-14T05:18:58.105Z,88.29
2022-09-14T05:21:25.009Z,89.58
2022-09-14T05:24:00.336Z,91.26
2022-09-14T05:26:28.322Z,90.43
2022-09-14T05:28:57.010Z,89.95
2022-09-14T05:31:24.328Z,89.11
2022-09-14T05:33:51.391Z,90.58
2022-09-14T05:36:17.944Z,90.75
2022-09-14T05:38:44.443Z,90.44
2022-09-14T05:41:12.967Z,89.07
2022-09-14T05:43:39.883Z,90.55
2022-09-14T05:46:11.182Z,90.85
2022-09-14T05:48:38.727Z,92.08
2022-09-14T05:51:16.442Z,91.98
2022-09-14T05:53:54.025Z,92.84
2022-09-14T05:56:23.033Z,92.29
2022-09-14T05:58:49.892Z,92.29
2022-09-14T06:01:22.127Z,92.25
2022-09-14T06:03:49.208Z,92.59
2022-09-14T06:06:18.039Z,92.26
2022-09-14T06:08:45.119Z,91.47
2022-09-14T06:11:14.883Z,93.16
2022-09-14T06:13:42.004Z,92.68
2022-09-14T06:16:12.912Z,93.11
2022-09-14T06:18:40.439Z,93.42
2022-09-14T06:21:09.596Z,93.24
2022-09-14T06:23:36.764Z,93.19
2022-09-14T06:26:05.140Z,93.44
2022-09-14T06:28:32.642Z,93.29
2022-09-14T06:30:59.039Z,93.67
2022-09-14T06:33:25.431Z,93.48
2022-09-14T06:36:00.452Z,93.82
2022-09-14T06:38:27.910Z,94.20
2022-09-14T06:40:59.572Z,94.10
2022-09-14T06:43:31.967Z,93.96
2022-09-14T06:46:10.934Z,93.67
2022-09-14T06:48:49.069Z,94.03
2022-09-14T06:51:24.494Z,94.96
2022-09-14T06:53:51.807Z,94.41
2022-09-14T06:56:18.544Z,94.34
2022-09-14T06:58:45.338Z,95.02
2022-09-14T07:01:14.956Z,95.32
2022-09-14T07:03:43.793Z,95.29
2022-09-14T07:06:13.767Z,94.94
2022-09-14T07:08:40.900Z,94.57
2022-09-14T07:11:08.788Z,94.94
2022-09-14T07:13:35.892Z,94.75
2022-09-14T07:16:05.652Z,94.31
2022-09-14T07:18:32.803Z,94.88
2022-09-14T07:21:19.187Z,94.30
2022-09-14T07:23:46.893Z,93.23
2022-09-14T07:26:14.473Z,92.18
2022-09-14T07:28:41.986Z,92.21
2022-09-14T07:31:22.221Z,92.75
2022-09-14T07:33:52.002Z,93.29
2022-09-14T07:36:18.509Z,92.75
2022-09-14T07:38:53.117Z,92.89
2022-09-14T07:41:25.584Z,91.39
2022-09-14T07:43:53.921Z,92.28
2022-09-14T07:46:21.383Z,91.51
2022-09-14T07:48:49.061Z,91.26
2022-09-14T07:51:16.010Z,92.00
2022-09-14T07:53:43.563Z,91.85
2022-09-14T07:56:11.587Z,91.82
2022-09-14T07:58:38.860Z,91.94
2022-09-14T08:01:11.868Z,92.59
2022-09-14T08:03:42.156Z,93.46
2022-09-14T08:06:15.081Z,93.75
2022-09-14T08:08:44.568Z,94.02
2022-09-14T08:11:35.126Z,94.23
2022-09-14T08:14:04.409Z,94.29
2022-09-14T08:16:32.411Z,94.74
2022-09-14T08:19:04.486Z,94.87
2022-09-14T08:21:32.523Z,94.84
2022-09-14T08:24:02.428Z,94.78
2022-09-14T08:26:29.281Z,95.27
2022-09-14T08:28:56.309Z,95.28
2022-09-14T08:31:27.138Z,95.70
2022-09-14T08:33:57.206Z,95.76
2022-09-14T08:36:25.111Z,95.80
2022-09-14T08:38:51.642Z,95.71
2022-09-14T08:41:37.849Z,95.08
2022-09-14T08:44:19.726Z,95.63
2022-09-14T08:46:54.750Z,95.06
2022-09-14T08:49:42.978Z,95.57
2022-09-14T08:52:23.046Z,95.83
2022-09-14T08:55:01.656Z,95.97
2022-09-14T08:57:37.901Z,96.07
2022-09-14T09:00:13.272Z,95.01
2022-09-14T09:03:15.070Z,95.39
2022-09-14T09:05:44.868Z,96.11
2022-09-14T09:09:32.836Z,95.24
2022-09-14T09:12:00.794Z,94.56
2022-09-14T09:14:35.695Z,94.30
2022-09-14T09:17:10.335Z,93.97
2022-09-14T09:19:51.799Z,94.61
2022-09-14T09:22:22.782Z,95.06
2022-09-14T09:24:53.887Z,94.40
2022-09-14T09:27:20.741Z,95.04
2022-09-14T09:29:48.089Z,95.09
2022-09-14T09:32:19.352Z,95.59
2022-09-14T09:34:46.009Z,94.97
2022-09-14T09:37:18.003Z,94.77
2022-09-14T09:39:44.856Z,94.47
2022-09-14T09:42:21.506Z,94.84
2022-09-14T09:44:56.933Z,95.05
2022-09-14T09:47:30.702Z,94.17
2022-09-14T09:50:00.142Z,93.76
2022-09-14T09:52:27.034Z,94.76
2022-09-14T09:54:55.692Z,94.75
2022-09-14T09:57:34.283Z,95.01
2022-09-14T10:00:22.383Z,95.10
2022-09-14T10:02:50.320Z,94.90
2022-09-14T10:05:16.637Z,94.51
2022-09-14T10:07:55.923Z,94.53
2022-09-14T10:10:44.950Z,94.13
2022-09-14T10:13:28.938Z,94.79
2022-09-14T10:16:07.199Z,94.33
2022-09-14T10:18:33.944Z,94.70
2022-09-14T10:21:00.239Z,94.82
2022-09-14T10:23:29.082Z,94.73
2022-09-14T10:26:10.625Z,94.13
2022-09-14T10:28:38.467Z,94.12
2022-09-14T10:31:26.993Z,94.38
2022-09-14T10:33:58.044Z,94.29
2022-09-14T10:36:32.945Z,93.39
2022-09-14T10:39:21.123Z,93.32
2022-09-14T10:42:10.084Z,92.48
2022-09-14T10:44:51.060Z,91.18
2022-09-14T10:47:32.574Z,92.62
2022-09-14T10:50:20.733Z,92.92
2022-09-14T10:53:19.806Z,93.62
2022-09-14T10:56:01.961Z,93.42
2022-09-14T10:58:50.533Z,93.55
2022-09-14T11:01:41.721Z,94.24
2022-09-14T11:04:35.005Z,94.10
2022-09-14T11:07:22.518Z,94.05
2022-09-14T11:10:13.323Z,94.76
2022-09-14T11:13:04.333Z,95.34
2022-09-14T11:15:41.798Z,94.99
2022-09-14T11:18:39.351Z,94.53
2022-09-14T11:21:21.092Z,92.37
2022-09-14T11:24:16.733Z,94.21
2022-09-14T11:26:57.721Z,94.54
2022-09-14T11:29:35.923Z,94.30
2022-09-14T11:32:33.389Z,92.70
2022-09-14T11:35:18.223Z,91.74
2022-09-14T11:37:56.042Z,92.46
2022-09-14T11:40:55.641Z,92.71
2022-09-14T11:43:29.382Z,93.67
2022-09-14T11:46:11.561Z,91.75
2022-09-14T11:48:44.497Z,91.41
2022-09-14T11:51:19.309Z,93.14
2022-09-14T11:53:46.700Z,93.35
2022-09-14T11:56:27.842Z,93.65
2022-09-14T11:58:59.720Z,92.74
2022-09-14T12:01:31.021Z,92.86
2022-09-14T12:03:59.619Z,92.79
2022-09-14T12:06:44.703Z,91.67
2022-09-14T12:09:14.107Z,92.45
2022-09-14T12:11:42.143Z,92.18
2022-09-14T12:14:23.801Z,91.74
2022-09-14T12:17:38.310Z,93.18
2022-09-14T12:20:38.119Z,93.33
2022-09-14T12:23:07.689Z,92.05
2022-09-14T12:25:34.771Z,92.49
2022-09-14T12:28:01.291Z,91.95
2022-09-14T12:30:41.303Z,92.22
2022-09-14T12:33:35.674Z,93.26
2022-09-14T12:36:06.185Z,92.62
2022-09-14T12:38:55.173Z,92.63
2022-09-14T12:41:21.414Z,93.38
2022-09-14T12:43:51.457Z,92.83
2022-09-14T12:46:21.234Z,93.17
2022-09-14T12:48:47.804Z,94.43
2022-09-14T12:51:36.545Z,92.84
2022-09-14T12:54:08.984Z,94.05
2022-09-14T12:57:09.620Z,93.27
2022-09-14T13:00:08.536Z,93.67
2022-09-14T13:02:43.517Z,92.40
2022-09-14T13:05:16.952Z,92.30
2022-09-14T13:07:44.329Z,93.85
2022-09-14T13:10:22.668Z,93.43
2022-09-14T13:12:50.587Z,93.75
2022-09-14T13:15:33.559Z,93.94
2022-09-14T13:18:03.729Z,94.06
2022-09-14T13:20:32.933Z,93.82
2022-09-14T13:22:59.626Z,94.39
2022-09-14T13:25:37.914Z,93.67
2022-09-14T13:28:13.900Z,92.63
2022-09-14T13:30:43.166Z,93.77
2022-09-14T13:33:17.715Z,93.82
2022-09-14T13:35:53.201Z,92.45
2022-09-14T13:38:30.578Z,92.63
2022-09-14T13:41:06.695Z,93.04
2022-09-14T13:43:33.839Z,92.75
2022-09-14T13:46:00.975Z,92.74
2022-09-14T13:48:27.583Z,93.22
2022-09-14T13:50:54.074Z,93.16
2022-09-14T13:53:57.750Z,92.94
2022-09-14T13:56:26.790Z,93.68
2022-09-14T13:59:08.103Z,92.86
2022-09-14T14:01:42.948Z,93.78
2022-09-14T14:04:37.324Z,93.79
2022-09-14T14:07:12.826Z,93.59
2022-09-14T14:09:50.650Z,93.76
2022-09-14T14:12:29.533Z,94.15
2022-09-14T14:15:03.592Z,94.38
2022-09-14T14:17:29.896Z,94.29
2022-09-14T14:19:59.343Z,94.69
2022-09-14T14:22:29.317Z,94.28
2022-09-14T14:25:12.737Z,93.44
2022-09-14T14:27:46.021Z,93.24
2022-09-14T14:30:22.141Z,92.57
2022-09-14T14:32:53.665Z,92.52
2022-09-14T14:35:23.296Z,92.47
2022-09-14T14:37:50.617Z,91.89
2022-09-14T14:40:18.461Z,91.39
2022-09-14T14:42:45.947Z,91.28
2022-09-14T14:45:19.117Z,90.76
2022-09-14T14:47:46.834Z,90.35
2022-09-14T14:50:18.560Z,89.65
2022-09-14T14:52:44.975Z,89.59
2022-09-14T14:55:11.565Z,89.64
2022-09-14T14:57:38.860Z,88.90
2022-09-14T15:00:12.973Z,89.26
2022-09-14T15:02:39.308Z,89.65
2022-09-14T15:05:06.142Z,89.15
2022-09-14T15:07:37.084Z,88.79
2022-09-14T15:10:05.687Z,88.00
2022-09-14T15:12:32.986Z,89.08
2022-09-14T15:15:00.356Z,88.95
2022-09-14T15:17:26.787Z,88.14
2022-09-14T15:19:53.160Z,88.65
2022-09-14T15:22:19.721Z,88.75
2022-09-14T15:24:46.073Z,88.82
2022-09-14T15:27:12.571Z,88.83
2022-09-14T15:29:39.140Z,88.40
2022-09-14T15:32:05.586Z,88.86
2022-09-14T15:34:32.052Z,89.44
2022-09-14T15:36:58.876Z,89.29
2022-09-14T15:39:27.410Z,89.21
2022-09-14T15:41:54.533Z,89.46
2022-09-14T15:44:21.223Z,89.45
2022-09-14T15:46:48.186Z,89.15
2022-09-14T15:49:21.083Z,88.39
2022-09-14T15:51:52.800Z,88.85
2022-09-14T15:54:23.015Z,89.35
2022-09-14T15:56:51.207Z,88.77
2022-09-14T15:59:19.284Z,89.28
2022-09-14T16:01:46.632Z,89.43
2022-09-14T16:04:13.343Z,89.86
2022-09-14T16:06:40.242Z,90.06
2022-09-14T16:09:09.232Z,89.94
2022-09-14T16:11:36.770Z,89.56
2022-09-14T16:14:05.448Z,89.50
2022-09-14T16:16:33.464Z,89.19
2022-09-14T16:19:14.912Z,89.65
2022-09-14T16:21:42.390Z,89.83
2022-09-14T16:24:13.426Z,87.84
2022-09-14T16:26:40.657Z,88.77
2022-09-14T16:29:08.451Z,89.20
2022-09-14T16:31:37.074Z,88.42
2022-09-14T16:34:24.415Z,88.64
2022-09-14T16:36:51.371Z,89.40
2022-09-14T16:39:20.300Z,89.69
2022-09-14T16:41:46.636Z,88.38
2022-09-14T16:44:16.431Z,87.87
2022-09-14T16:46:43.365Z,88.08
2022-09-14T16:49:10.328Z,88.23
2022-09-14T16:51:37.080Z,89.08
2022-09-14T16:54:04.450Z,89.56
2022-09-14T16:56:33.383Z,88.99
2022-09-14T16:59:00.907Z,89.44
2022-09-14T17:01:32.978Z,88.84
2022-09-14T17:04:03.780Z,88.64
2022-09-14T17:06:31.919Z,87.30
2022-09-14T17:09:04.631Z,87.56
2022-09-14T17:11:32.981Z,87.23
2022-09-14T17:13:59.806Z,87.11
2022-09-14T17:16:28.094Z,87.73
2022-09-14T17:18:58.946Z,88.16
2022-09-14T17:21:36.965Z,88.25
2022-09-14T17:24:07.271Z,89.04
2022-09-14T17:26:35.601Z,89.39
2022-09-14T17:29:03.799Z,88.86
2022-09-14T17:31:33.689Z,88.28
2022-09-14T17:34:04.504Z,89.33
2022-09-14T17:36:31.126Z,89.02
2022-09-14T17:38:59.417Z,89.35
2022-09-14T17:41:30.362Z,89.13
2022-09-14T17:43:59.072Z,89.72
2022-09-14T17:46:26.118Z,90.13
2022-09-14T17:48:52.890Z,90.30
2022-09-14T17:51:22.846Z,90.07
2022-09-14T17:53:51.891Z,90.06
2022-09-14T17:56:21.031Z,89.87
2022-09-14T17:58:48.921Z,89.47
2022-09-14T18:01:21.165Z,89.68
2022-09-14T18:03:57.571Z,89.71
2022-09-14T18:06:27.992Z,89.64
2022-09-14T18:08:56.548Z,89.44
2022-09-14T18:11:23.803Z,89.10
2022-09-14T18:13:50.612Z,88.63
2022-09-14T18:16:19.393Z,89.39
2022-09-14T18:18:48.074Z,89.63
2022-09-14T18:21:16.736Z,89.72
2022-09-14T18:23:43.741Z,89.61
2022-09-14T18:26:10.176Z,89.53
2022-09-14T18:28:36.711Z,89.79
2022-09-14T18:31:07.871Z,89.50
2022-09-14T18:33:35.212Z,90.21
2022-09-14T18:36:02.234Z,89.86
2022-09-14T18:38:29.946Z,90.14
2022-09-14T18:41:03.127Z,89.93
2022-09-14T18:43:29.590Z,90.07
2022-09-14T18:45:55.901Z,90.77
2022-09-14T18:48:22.268Z,90.55
2022-09-14T18:50:48.769Z,90.42
2022-09-14T18:53:15.442Z,90.37
2022-09-14T18:55:41.817Z,91.08
2022-09-14T18:58:08.392Z,90.73
2022-09-14T19:00:35.187Z,90.80
2022-09-14T19:03:01.518Z,90.76
2022-09-14T19:05:29.879Z,91.29
2022-09-14T19:07:56.445Z,91.27
2022-09-14T19:10:23.081Z,91.50
2022-09-14T19:12:49.630Z,91.31
2022-09-14T19:15:16.068Z,90.71
2022-09-14T19:17:42.391Z,90.46
2022-09-14T19:20:10.850Z,90.48
2022-09-14T19:22:37.259Z,90.40
2022-09-14T19:25:04.056Z,90.21
2022-09-14T19:27:30.441Z,90.18
2022-09-14T19:29:56.845Z,90.17
2022-09-14T19:32:23.254Z,90.58
2022-09-14T19:34:49.887Z,90.64
2022-09-14T19:37:16.429Z,90.51
2022-09-14T19:39:42.886Z,90.65
2022-09-14T19:42:09.240Z,90.89
2022-09-14T19:44:35.670Z,90.97
2022-09-14T19:47:02.096Z,90.71
2022-09-14T19:49:28.528Z,90.97
2022-09-14T19:51:55.030Z,90.64
2022-09-14T19:54:22.456Z,90.90
2022-09-14T19:56:48.900Z,90.88
2022-09-14T19:59:16.539Z,90.82
2022-09-14T20:01:44.254Z,90.56
2022-09-14T20:04:11.745Z,90.48
2022-09-14T20:06:42.417Z,90.82
2022-09-14T20:09:13.515Z,90.53
2022-09-14T20:11:41.459Z,90.52
2022-09-14T20:14:11.998Z,90.53
2022-09-14T20:16:44.606Z,90.51
2022-09-14T20:19:16.468Z,90.52
2022-09-14T20:21:44.530Z,90.69
2022-09-14T20:24:17.021Z,90.91
2022-09-14T20:26:45.841Z,91.17
2022-09-14T20:29:12.820Z,90.68
2022-09-14T20:31:39.269Z,91.36
2022-09-14T20:34:05.710Z,91.40
2022-09-14T20:36:32.548Z,91.38
2022-09-14T20:38:59.654Z,91.57
2022-09-14T20:41:30.105Z,91.63
2022-09-14T20:43:56.539Z,91.57
2022-09-14T20:46:28.052Z,91.29
2022-09-14T20:48:57.615Z,91.78
2022-09-14T20:51:25.049Z,92.27
2022-09-14T20:53:52.120Z,92.20
2022-09-14T20:56:24.265Z,92.29
2022-09-14T20:58:54.626Z,92.17
2022-09-14T21:01:22.827Z,92.03
2022-09-14T21:03:50.262Z,92.11
2022-09-14T21:06:20.107Z,92.52
2022-09-14T21:08:46.867Z,91.69
2022-09-14T21:11:19.511Z,91.81
2022-09-14T21:13:49.235Z,91.83
2022-09-14T21:16:19.452Z,91.93
2022-09-14T21:18:48.186Z,92.07
2022-09-14T21:21:17.027Z,91.93
2022-09-14T21:23:43.855Z,92.31
2022-09-14T21:26:11.999Z,92.08
2022-09-14T21:28:40.029Z,91.96
2022-09-14T21:31:13.059Z,91.69
2022-09-14T21:33:41.544Z,91.77
2022-09-14T21:36:14.528Z,92.06
2022-09-14T21:38:41.185Z,92.28
2022-09-14T21:41:09.617Z,92.09
2022-09-14T21:43:38.285Z,91.92
2022-09-14T21:46:05.643Z,92.21
2022-09-14T21:48:32.640Z,92.13
2022-09-14T21:51:17.011Z,92.36
2022-09-14T21:53:55.242Z,92.12
2022-09-14T21:56:25.829Z,92.46
2022-09-14T21:58:54.553Z,92.74
2022-09-14T22:01:21.705Z,92.55
2022-09-14T22:03:51.388Z,92.44
2022-09-14T22:06:22.489Z,92.47
2022-09-14T22:08:50.328Z,92.15
2022-09-14T22:11:22.907Z,91.79
2022-09-14T22:14:05.583Z,91.98
2022-09-14T22:16:34.299Z,91.55
2022-09-14T22:19:03.980Z,91.50
2022-09-14T22:21:31.664Z,90.99
2022-09-14T22:24:00.319Z,91.29
2022-09-14T22:26:29.032Z,91.05
2022-09-14T22:28:57.261Z,91.27
2022-09-14T22:31:26.928Z,91.12
2022-09-14T22:33:59.480Z,90.87
2022-09-14T22:36:26.809Z,91.28
2022-09-14T22:38:58.584Z,91.03
2022-09-14T22:41:26.404Z,91.05
2022-09-14T22:43:53.256Z,91.44
2022-09-14T22:46:20.342Z,91.28
2022-09-14T22:48:46.874Z,91.27
2022-09-14T22:51:21.607Z,91.47
2022-09-14T22:53:48.056Z,91.54
2022-09-14T22:56:19.602Z,91.61
2022-09-14T22:58:46.912Z,91.46
2022-09-14T23:01:18.275Z,91.47
2022-09-14T23:03:45.142Z,91.35
2022-09-14T23:06:11.961Z,92.07
2022-09-14T23:08:39.581Z,91.53
2022-09-14T23:11:10.049Z,91.08
2022-09-14T23:13:41.169Z,90.64
2022-09-14T23:16:15.533Z,91.15
2022-09-14T23:18:42.508Z,91.11
2022-09-14T23:21:09.659Z,91.27
2022-09-14T23:23:38.024Z,91.43
2022-09-14T23:26:11.752Z,91.14
2022-09-14T23:28:38.651Z,91.47
2022-09-14T23:31:05.967Z,91.51
2022-09-14T23:33:32.823Z,91.67
2022-09-14T23:35:59.229Z,91.49
2022-09-14T23:38:25.837Z,91.57
2022-09-14T23:40:52.349Z,91.72
2022-09-14T23:43:19.556Z,91.28
2022-09-14T23:45:47.272Z,91.31
2022-09-14T23:48:14.892Z,91.63
2022-09-14T23:50:41.247Z,91.39
2022-09-14T23:53:08.294Z,91.29
2022-09-14T23:55:34.710Z,91.22
2022-09-14T23:58:01.066Z,91.05
